sensor_id;sensor_type;location;lat;lon;timestamp;P1;durP1;ratioP1;P2;durP2;ratioP2
17261;SDS011;9873;52.236;21.002;2023-07-13T00:06:51;7.70;;;6.90;;
17261;SDS011;9873;52.236;21.002;2023-07-13T00:16:54;9.63;;;7.20;;
17261;SDS011;9873;52.236;21.002;2023-07-13T00:26:57;9.68;;;7.28;;
17261;SDS011;9873;52.236;21.002;2023-07-13T00:37:02;9.27;;;7.75;;
17261;SDS011;9873;52.236;21.002;2023-07-13T00:47:05;10.70;;;7.97;;
17261;SDS011;9873;52.236;21.002;2023-07-13T00:57:17;10.32;;;8.38;;
17261;SDS011;9873;52.236;21.002;2023-07-13T01:07:21;10.55;;;8.43;;
17261;SDS011;9873;52.236;21.002;2023-07-13T01:17:23;9.07;;;8.05;;
17261;SDS011;9873;52.236;21.002;2023-07-13T01:27:31;9.85;;;7.40;;
17261;SDS011;9873;52.236;21.002;2023-07-13T01:37:36;10.20;;;9.00;;
17261;SDS011;9873;52.236;21.002;2023-07-13T01:47:38;11.70;;;8.75;;
17261;SDS011;9873;52.236;21.002;2023-07-13T01:57:44;12.65;;;8.73;;
17261;SDS011;9873;52.236;21.002;2023-07-13T02:07:49;12.93;;;9.50;;
17261;SDS011;9873;52.236;21.002;2023-07-13T02:17:51;14.00;;;8.93;;
17261;SDS011;9873;52.236;21.002;2023-07-13T02:27:54;11.88;;;9.52;;
17261;SDS011;9873;52.236;21.002;2023-07-13T02:37:56;11.52;;;9.68;;
17261;SDS011;9873;52.236;21.002;2023-07-13T02:48:01;11.60;;;10.43;;
17261;SDS011;9873;52.236;21.002;2023-07-13T02:58:06;12.80;;;9.88;;
17261;SDS011;9873;52.236;21.002;2023-07-13T03:08:14;13.45;;;10.38;;
17261;SDS011;9873;52.236;21.002;2023-07-13T03:18:18;13.70;;;10.73;;
17261;SDS011;9873;52.236;21.002;2023-07-13T03:28:23;13.32;;;10.90;;
17261;SDS011;9873;52.236;21.002;2023-07-13T03:38:28;14.50;;;11.10;;
17261;SDS011;9873;52.236;21.002;2023-07-13T03:48:31;19.10;;;12.30;;
17261;SDS011;9873;52.236;21.002;2023-07-13T03:58:36;12.57;;;10.48;;
17261;SDS011;9873;52.236;21.002;2023-07-13T04:08:51;14.70;;;10.07;;
17261;SDS011;9873;52.236;21.002;2023-07-13T04:18:56;13.80;;;10.32;;
17261;SDS011;9873;52.236;21.002;2023-07-13T04:29:04;14.02;;;11.55;;
17261;SDS011;9873;52.236;21.002;2023-07-13T04:39:11;12.32;;;10.85;;
17261;SDS011;9873;52.236;21.002;2023-07-13T04:49:15;16.33;;;12.20;;
17261;SDS011;9873;52.236;21.002;2023-07-13T04:59:23;13.48;;;12.07;;
17261;SDS011;9873;52.236;21.002;2023-07-13T05:09:31;16.50;;;12.25;;
17261;SDS011;9873;52.236;21.002;2023-07-13T05:19:34;14.77;;;12.75;;
17261;SDS011;9873;52.236;21.002;2023-07-13T05:29:39;16.55;;;13.70;;
17261;SDS011;9873;52.236;21.002;2023-07-13T05:39:51;15.45;;;13.18;;
17261;SDS011;9873;52.236;21.002;2023-07-13T05:50:01;15.45;;;12.57;;
17261;SDS011;9873;52.236;21.002;2023-07-13T06:00:12;15.43;;;11.73;;
17261;SDS011;9873;52.236;21.002;2023-07-13T06:10:27;9.15;;;7.55;;
17261;SDS011;9873;52.236;21.002;2023-07-13T06:20:33;22.75;;;13.38;;
17261;SDS011;9873;52.236;21.002;2023-07-13T06:30:55;9.10;;;7.72;;
17261;SDS011;9873;52.236;21.002;2023-07-13T06:41:02;11.93;;;7.70;;
17261;SDS011;9873;52.236;21.002;2023-07-13T06:51:10;8.15;;;6.72;;
17261;SDS011;9873;52.236;21.002;2023-07-13T07:01:14;7.18;;;4.68;;
17261;SDS011;9873;52.236;21.002;2023-07-13T07:11:21;3.42;;;3.10;;
17261;SDS011;9873;52.236;21.002;2023-07-13T07:21:29;3.88;;;3.08;;
17261;SDS011;9873;52.236;21.002;2023-07-13T07:31:40;4.63;;;3.40;;
17261;SDS011;9873;52.236;21.002;2023-07-13T07:41:46;5.72;;;3.92;;
17261;SDS011;9873;52.236;21.002;2023-07-13T07:51:56;4.82;;;4.07;;
17261;SDS011;9873;52.236;21.002;2023-07-13T08:02:01;5.25;;;4.40;;
17261;SDS011;9873;52.236;21.002;2023-07-13T08:12:12;5.70;;;4.18;;
17261;SDS011;9873;52.236;21.002;2023-07-13T08:22:22;4.35;;;3.58;;
17261;SDS011;9873;52.236;21.002;2023-07-13T08:32:27;4.93;;;4.22;;
17261;SDS011;9873;52.236;21.002;2023-07-13T08:52:51;6.88;;;4.40;;
17261;SDS011;9873;52.236;21.002;2023-07-13T09:02:58;4.95;;;4.45;;
17261;SDS011;9873;52.236;21.002;2023-07-13T09:23:30;5.07;;;4.47;;
17261;SDS011;9873;52.236;21.002;2023-07-13T09:33:41;6.13;;;4.95;;
17261;SDS011;9873;52.236;21.002;2023-07-13T09:54:20;8.38;;;3.65;;
17261;SDS011;9873;52.236;21.002;2023-07-13T10:04:33;5.22;;;3.70;;
17261;SDS011;9873;52.236;21.002;2023-07-13T10:14:44;5.95;;;3.13;;
17261;SDS011;9873;52.236;21.002;2023-07-13T10:24:49;4.82;;;3.88;;
17261;SDS011;9873;52.236;21.002;2023-07-13T10:35:01;3.65;;;3.00;;
17261;SDS011;9873;52.236;21.002;2023-07-13T10:45:15;5.18;;;4.40;;
17261;SDS011;9873;52.236;21.002;2023-07-13T11:16:33;12.32;;;6.95;;
17261;SDS011;9873;52.236;21.002;2023-07-13T11:36:50;13.27;;;8.85;;
17261;SDS011;9873;52.236;21.002;2023-07-13T11:46:57;15.95;;;9.07;;
17261;SDS011;9873;52.236;21.002;2023-07-13T12:07:40;16.50;;;8.20;;
17261;SDS011;9873;52.236;21.002;2023-07-13T12:17:49;21.73;;;10.73;;
17261;SDS011;9873;52.236;21.002;2023-07-13T12:27:53;26.90;;;12.00;;
17261;SDS011;9873;52.236;21.002;2023-07-13T12:37:56;17.10;;;10.60;;
17261;SDS011;9873;52.236;21.002;2023-07-13T12:48:04;14.43;;;8.20;;
17261;SDS011;9873;52.236;21.002;2023-07-13T12:58:28;16.63;;;9.00;;
17261;SDS011;9873;52.236;21.002;2023-07-13T13:08:37;18.38;;;10.15;;
17261;SDS011;9873;52.236;21.002;2023-07-13T13:18:44;16.13;;;10.60;;
17261;SDS011;9873;52.236;21.002;2023-07-13T13:28:55;16.23;;;9.25;;
17261;SDS011;9873;52.236;21.002;2023-07-13T13:39:18;23.48;;;10.55;;
17261;SDS011;9873;52.236;21.002;2023-07-13T13:49:28;21.00;;;10.57;;
17261;SDS011;9873;52.236;21.002;2023-07-13T13:59:32;12.48;;;8.98;;
17261;SDS011;9873;52.236;21.002;2023-07-13T14:09:44;14.48;;;9.15;;
17261;SDS011;9873;52.236;21.002;2023-07-13T14:19:47;16.00;;;9.38;;
17261;SDS011;9873;52.236;21.002;2023-07-13T14:29:54;14.35;;;10.27;;
17261;SDS011;9873;52.236;21.002;2023-07-13T14:39:59;13.05;;;9.90;;
17261;SDS011;9873;52.236;21.002;2023-07-13T14:50:03;17.67;;;12.20;;
17261;SDS011;9873;52.236;21.002;2023-07-13T15:00:13;12.35;;;11.02;;
17261;SDS011;9873;52.236;21.002;2023-07-13T15:10:20;10.98;;;8.73;;
17261;SDS011;9873;52.236;21.002;2023-07-13T15:20:35;7.70;;;6.90;;
17261;SDS011;9873;52.236;21.002;2023-07-13T15:30:42;7.68;;;6.75;;
17261;SDS011;9873;52.236;21.002;2023-07-13T15:40:50;9.77;;;7.00;;
17261;SDS011;9873;52.236;21.002;2023-07-13T15:51:00;8.25;;;5.75;;
17261;SDS011;9873;52.236;21.002;2023-07-13T16:01:04;14.38;;;7.13;;
17261;SDS011;9873;52.236;21.002;2023-07-13T16:11:16;7.67;;;6.90;;
17261;SDS011;9873;52.236;21.002;2023-07-13T16:21:32;6.95;;;6.25;;
17261;SDS011;9873;52.236;21.002;2023-07-13T16:42:08;10.85;;;8.52;;
17261;SDS011;9873;52.236;21.002;2023-07-13T16:52:25;13.00;;;7.82;;
17261;SDS011;9873;52.236;21.002;2023-07-13T17:02:32;8.73;;;7.45;;
17261;SDS011;9873;52.236;21.002;2023-07-13T17:12:58;9.30;;;6.88;;
17261;SDS011;9873;52.236;21.002;2023-07-13T17:23:11;7.53;;;6.45;;
17261;SDS011;9873;52.236;21.002;2023-07-13T17:43:50;6.35;;;5.75;;
17261;SDS011;9873;52.236;21.002;2023-07-13T17:53:59;9.32;;;6.50;;
17261;SDS011;9873;52.236;21.002;2023-07-13T18:04:11;7.38;;;6.22;;
17261;SDS011;9873;52.236;21.002;2023-07-13T18:14:18;9.73;;;5.97;;
17261;SDS011;9873;52.236;21.002;2023-07-13T18:24:29;6.60;;;5.20;;
17261;SDS011;9873;52.236;21.002;2023-07-13T18:34:41;9.93;;;5.82;;
17261;SDS011;9873;52.236;21.002;2023-07-13T18:44:46;5.93;;;5.05;;
17261;SDS011;9873;52.236;21.002;2023-07-13T18:54:54;7.22;;;5.68;;
17261;SDS011;9873;52.236;21.002;2023-07-13T19:04:56;6.28;;;5.68;;
17261;SDS011;9873;52.236;21.002;2023-07-13T19:15:01;6.47;;;5.60;;
17261;SDS011;9873;52.236;21.002;2023-07-13T19:25:11;6.10;;;5.50;;
17261;SDS011;9873;52.236;21.002;2023-07-13T19:35:23;7.80;;;5.57;;
17261;SDS011;9873;52.236;21.002;2023-07-13T19:45:30;6.68;;;5.53;;
17261;SDS011;9873;52.236;21.002;2023-07-13T19:55:32;7.60;;;5.50;;
17261;SDS011;9873;52.236;21.002;2023-07-13T20:05:40;7.38;;;5.45;;
17261;SDS011;9873;52.236;21.002;2023-07-13T20:15:43;6.53;;;5.68;;
17261;SDS011;9873;52.236;21.002;2023-07-13T20:25:50;5.95;;;5.05;;
17261;SDS011;9873;52.236;21.002;2023-07-13T20:36:03;9.52;;;6.32;;
17261;SDS011;9873;52.236;21.002;2023-07-13T20:46:12;7.38;;;6.20;;
17261;SDS011;9873;52.236;21.002;2023-07-13T20:56:25;6.57;;;5.88;;
17261;SDS011;9873;52.236;21.002;2023-07-13T21:06:31;6.90;;;5.93;;
17261;SDS011;9873;52.236;21.002;2023-07-13T21:16:35;7.90;;;6.38;;
17261;SDS011;9873;52.236;21.002;2023-07-13T21:26:40;7.32;;;5.90;;
17261;SDS011;9873;52.236;21.002;2023-07-13T21:36:46;9.93;;;6.45;;
17261;SDS011;9873;52.236;21.002;2023-07-13T21:46:48;7.97;;;6.97;;
17261;SDS011;9873;52.236;21.002;2023-07-13T21:56:53;8.30;;;7.38;;
17261;SDS011;9873;52.236;21.002;2023-07-13T22:06:55;10.18;;;8.50;;
17261;SDS011;9873;52.236;21.002;2023-07-13T22:17:06;10.45;;;9.45;;
17261;SDS011;9873;52.236;21.002;2023-07-13T22:27:10;12.10;;;10.07;;
17261;SDS011;9873;52.236;21.002;2023-07-13T22:37:15;9.43;;;7.80;;
17261;SDS011;9873;52.236;21.002;2023-07-13T22:47:20;9.55;;;8.35;;
17261;SDS011;9873;52.236;21.002;2023-07-13T22:57:25;8.40;;;7.00;;
17261;SDS011;9873;52.236;21.002;2023-07-13T23:07:29;8.00;;;6.57;;
17261;SDS011;9873;52.236;21.002;2023-07-13T23:17:32;7.28;;;6.13;;
17261;SDS011;9873;52.236;21.002;2023-07-13T23:27:35;8.55;;;5.90;;
17261;SDS011;9873;52.236;21.002;2023-07-13T23:37:37;7.65;;;6.40;;
17261;SDS011;9873;52.236;21.002;2023-07-13T23:47:46;6.50;;;5.90;;
17261;SDS011;9873;52.236;21.002;2023-07-13T23:57:58;8.93;;;5.82;;
